createdAt,value
2023-02-01T00:02:49.726Z,2.10
2023-02-01T00:07:56.569Z,2.00
2023-02-01T00:13:04.826Z,2.10
2023-02-01T00:18:11.951Z,2.10
2023-02-01T00:23:19.214Z,1.90
2023-02-01T00:28:26.060Z,1.80
2023-02-01T00:33:34.431Z,2.10
2023-02-01T00:38:41.836Z,2.10
2023-02-01T00:43:49.695Z,1.80
2023-02-01T00:48:57.245Z,1.80
2023-02-01T00:54:04.967Z,2.10
2023-02-01T00:59:16.000Z,1.90
2023-02-01T01:04:22.907Z,1.50
2023-02-01T01:09:29.779Z,1.50
2023-02-01T01:14:36.804Z,1.60
2023-02-01T01:19:43.705Z,1.80
2023-02-01T01:24:50.703Z,1.90
2023-02-01T01:29:57.589Z,1.90
2023-02-01T01:35:05.347Z,1.90
2023-02-01T01:40:14.172Z,1.90
2023-02-01T01:45:33.131Z,2.50
2023-02-01T01:50:48.652Z,2.30
2023-02-01T01:55:57.507Z,2.40
2023-02-01T02:01:04.695Z,2.20
2023-02-01T02:06:21.467Z,2.20
2023-02-01T02:11:28.616Z,1.80
2023-02-01T02:16:59.372Z,2.10
2023-02-01T02:22:46.889Z,2.60
2023-02-01T02:28:36.895Z,2.20
2023-02-01T02:33:56.845Z,2.10
2023-02-01T02:39:09.549Z,2.30
2023-02-01T02:44:46.862Z,2.50
2023-02-01T02:50:24.461Z,2.70
2023-02-01T02:55:33.708Z,2.40
2023-02-01T03:00:58.588Z,2.50
2023-02-01T03:06:06.938Z,2.40
2023-02-01T03:11:16.826Z,2.40
2023-02-01T03:16:48.417Z,2.40
2023-02-01T03:22:05.377Z,2.00
2023-02-01T03:27:41.686Z,2.10
2023-02-01T03:33:00.932Z,1.90
2023-02-01T03:38:21.260Z,2.10
2023-02-01T03:43:30.195Z,2.10
2023-02-01T03:48:38.642Z,3.10
2023-02-01T03:53:48.459Z,3.00
2023-02-01T03:59:01.290Z,2.70
2023-02-01T04:04:08.092Z,2.80
2023-02-01T04:09:14.849Z,2.70
2023-02-01T04:14:21.526Z,3.40
2023-02-01T04:19:28.189Z,2.90
2023-02-01T04:24:34.866Z,3.20
2023-02-01T04:29:42.333Z,3.40
2023-02-01T04:34:48.990Z,3.30
2023-02-01T04:39:55.708Z,3.10
2023-02-01T04:45:02.387Z,2.70
2023-02-01T04:50:11.709Z,2.60
2023-02-01T04:55:18.470Z,2.50
2023-02-01T05:00:26.134Z,3.00
2023-02-01T05:05:33.130Z,2.80
2023-02-01T05:10:39.787Z,3.10
2023-02-01T05:15:47.408Z,2.70
2023-02-01T05:20:54.083Z,2.60
2023-02-01T05:26:04.618Z,2.30
2023-02-01T05:31:14.977Z,2.40
2023-02-01T05:36:21.739Z,2.40
2023-02-01T05:41:28.435Z,2.60
2023-02-01T05:46:35.735Z,2.40
2023-02-01T05:51:42.505Z,2.20
2023-02-01T05:56:49.231Z,2.60
2023-02-01T06:01:55.897Z,2.90
2023-02-01T06:07:02.622Z,3.30
2023-02-01T06:12:09.552Z,2.70
2023-02-01T06:17:16.216Z,2.70
2023-02-01T06:22:23.778Z,2.50
2023-02-01T06:27:31.103Z,2.50
2023-02-01T06:32:37.839Z,3.10
2023-02-01T06:37:46.672Z,2.80
2023-02-01T06:42:53.342Z,2.60
2023-02-01T06:48:03.201Z,3.00
2023-02-01T06:53:10.774Z,2.70
2023-02-01T06:58:17.485Z,2.50
2023-02-01T07:03:24.373Z,2.80
2023-02-01T07:08:32.884Z,3.30
2023-02-01T07:13:39.857Z,3.10
2023-02-01T07:18:47.952Z,2.60
2023-02-01T07:23:54.607Z,2.70
2023-02-01T07:29:01.395Z,2.60
2023-02-01T07:34:08.059Z,2.80
2023-02-01T07:39:14.665Z,2.70
2023-02-01T07:44:23.024Z,2.70
2023-02-01T07:49:29.648Z,2.70
2023-02-01T07:54:36.359Z,2.80
2023-02-01T07:59:44.619Z,2.90
2023-02-01T08:04:51.342Z,2.80
2023-02-01T08:09:57.987Z,2.90
2023-02-01T08:15:05.200Z,3.10
2023-02-01T08:20:14.830Z,3.30
2023-02-01T08:25:21.851Z,3.10
2023-02-01T08:30:28.884Z,3.30
2023-02-01T08:35:43.431Z,3.20
2023-02-01T08:40:46.848Z,3.40
2023-02-01T08:45:57.327Z,3.20
2023-02-01T08:51:09.735Z,3.00
2023-02-01T08:56:18.220Z,3.30
2023-02-01T09:01:24.922Z,3.30
2023-02-01T09:06:31.574Z,3.40
2023-02-01T09:11:44.305Z,3.50
2023-02-01T09:16:51.003Z,4.10
2023-02-01T09:21:57.782Z,3.60
2023-02-01T09:27:04.644Z,3.50
2023-02-01T09:32:11.477Z,3.30
2023-02-01T09:37:18.300Z,3.40
2023-02-01T09:42:41.036Z,3.40
2023-02-01T09:47:52.216Z,4.10
2023-02-01T09:53:32.144Z,4.20
2023-02-01T09:58:49.238Z,4.00
2023-02-01T10:04:00.542Z,4.60
2023-02-01T10:09:14.707Z,4.30
2023-02-01T10:14:49.825Z,4.40
2023-02-01T10:20:32.385Z,4.80
2023-02-01T10:25:57.781Z,5.10
2023-02-01T10:31:05.292Z,5.00
2023-02-01T10:36:40.389Z,5.50
2023-02-01T10:41:47.138Z,5.60
2023-02-01T10:46:53.931Z,5.30
2023-02-01T10:52:23.492Z,5.20
2023-02-01T10:57:30.964Z,5.70
2023-02-01T11:02:38.888Z,5.50
2023-02-01T11:07:51.903Z,5.50
2023-02-01T11:12:59.020Z,5.30
2023-02-01T11:18:19.441Z,5.00
2023-02-01T11:23:29.086Z,5.00
2023-02-01T11:28:39.578Z,5.30
2023-02-01T11:33:55.982Z,5.60
2023-02-01T11:39:18.701Z,5.60
2023-02-01T11:44:35.084Z,5.70
2023-02-01T11:49:41.747Z,5.80
2023-02-01T11:54:55.508Z,5.50
2023-02-01T12:00:43.462Z,5.40
2023-02-01T12:06:14.649Z,5.50
2023-02-01T12:11:45.150Z,5.80
2023-02-01T12:17:37.896Z,5.50
2023-02-01T12:23:05.399Z,5.90
2023-02-01T12:28:53.601Z,5.60
2023-02-01T12:34:54.119Z,5.90
2023-02-01T12:40:16.908Z,5.60
2023-02-01T12:45:36.958Z,5.90
2023-02-01T12:50:56.722Z,5.40
2023-02-01T12:56:08.513Z,5.30
2023-02-01T13:01:31.513Z,5.10
2023-02-01T13:06:55.196Z,5.20
2023-02-01T13:12:13.393Z,5.30
2023-02-01T13:17:33.074Z,5.80
2023-02-01T13:22:47.335Z,5.20
2023-02-01T13:28:01.141Z,5.20
2023-02-01T13:33:53.885Z,5.50
2023-02-01T13:39:06.487Z,5.20
2023-02-01T13:44:17.571Z,5.10
2023-02-01T13:49:31.433Z,4.90
2023-02-01T13:54:41.584Z,5.00
2023-02-01T13:59:51.672Z,5.40
2023-02-01T14:04:58.411Z,5.30
2023-02-01T14:10:52.973Z,5.10
2023-02-01T14:16:18.091Z,5.20
2023-02-01T14:21:35.001Z,5.40
2023-02-01T14:26:48.165Z,4.90
2023-02-01T14:32:27.201Z,5.10
2023-02-01T14:37:38.003Z,4.80
2023-02-01T14:42:53.934Z,4.70
2023-02-01T14:48:17.291Z,5.00
2023-02-01T14:53:35.244Z,4.60
2023-02-01T14:59:11.385Z,4.50
2023-02-01T15:04:23.096Z,4.80
2023-02-01T15:09:35.685Z,4.80
2023-02-01T15:14:53.070Z,4.40
2023-02-01T15:20:08.993Z,4.50
2023-02-01T15:25:36.482Z,4.30
2023-02-01T15:30:45.121Z,4.70
2023-02-01T15:35:58.279Z,4.40
2023-02-01T15:41:21.127Z,4.10
2023-02-01T15:46:44.333Z,4.00
2023-02-01T15:51:51.809Z,4.00
2023-02-01T15:57:02.913Z,3.90
2023-02-01T16:02:33.495Z,3.70
2023-02-01T16:07:41.652Z,3.80
2023-02-01T16:12:50.889Z,3.60
2023-02-01T16:17:57.859Z,4.00
2023-02-01T16:23:08.074Z,3.70
2023-02-01T16:28:14.743Z,3.30
2023-02-01T16:33:27.192Z,3.70
2023-02-01T16:38:35.167Z,3.60
2023-02-01T16:43:41.862Z,3.90
2023-02-01T16:48:52.781Z,3.60
2023-02-01T16:53:59.478Z,3.60
2023-02-01T16:59:07.184Z,3.50
2023-02-01T17:04:18.955Z,4.00
2023-02-01T17:09:26.760Z,3.60
2023-02-01T17:14:38.430Z,3.70
2023-02-01T17:19:51.817Z,3.70
2023-02-01T17:24:58.542Z,3.50
2023-02-01T17:30:06.396Z,3.30
2023-02-01T17:35:20.412Z,3.30
2023-02-01T17:40:28.783Z,3.20
2023-02-01T17:45:40.951Z,3.50
2023-02-01T17:50:52.089Z,3.30
2023-02-01T17:55:59.699Z,3.10
2023-02-01T18:01:06.845Z,3.20
2023-02-01T18:06:27.198Z,3.20
2023-02-01T18:11:34.029Z,3.40
2023-02-01T18:16:41.923Z,3.30
2023-02-01T18:21:49.241Z,3.40
2023-02-01T18:26:55.893Z,3.30
2023-02-01T18:32:02.780Z,3.10
2023-02-01T18:37:09.945Z,2.90
2023-02-01T18:42:16.624Z,2.90
2023-02-01T18:47:24.035Z,3.20
2023-02-01T18:52:31.016Z,2.90
2023-02-01T18:57:38.325Z,3.40
2023-02-01T19:02:45.667Z,3.00
2023-02-01T19:07:53.113Z,3.00
2023-02-01T19:13:00.036Z,3.00
2023-02-01T19:18:07.605Z,3.00
2023-02-01T19:23:15.842Z,3.10
2023-02-01T19:28:22.886Z,3.50
2023-02-01T19:33:29.964Z,3.40
2023-02-01T19:38:37.676Z,3.40
2023-02-01T19:43:45.334Z,3.10
2023-02-01T19:48:52.389Z,3.10
2023-02-01T19:53:59.188Z,3.00
2023-02-01T19:59:07.240Z,3.10
2023-02-01T20:04:14.040Z,2.90
2023-02-01T20:09:23.677Z,2.60
2023-02-01T20:14:31.032Z,2.50
2023-02-01T20:19:37.888Z,2.50
2023-02-01T20:24:44.833Z,2.50
2023-02-01T20:29:52.770Z,2.30
2023-02-01T20:34:59.546Z,2.30
2023-02-01T20:40:07.713Z,2.40
2023-02-01T20:45:14.748Z,2.50
2023-02-01T20:50:21.765Z,2.40
2023-02-01T20:55:28.896Z,2.60
2023-02-01T21:00:35.868Z,2.50
2023-02-01T21:05:52.022Z,2.60
2023-02-01T21:11:11.324Z,2.50
2023-02-01T21:16:20.877Z,2.50
2023-02-01T21:21:27.751Z,2.60
2023-02-01T21:26:36.351Z,2.70
2023-02-01T21:31:44.765Z,2.50
2023-02-01T21:36:52.368Z,2.50
2023-02-01T21:42:16.623Z,2.60
2023-02-01T21:47:26.249Z,2.80
2023-02-01T21:52:34.312Z,2.80
2023-02-01T21:57:41.834Z,2.80
2023-02-01T22:02:49.555Z,2.70
2023-02-01T22:07:56.606Z,2.80
2023-02-01T22:13:03.436Z,2.70
2023-02-01T22:18:10.200Z,3.10
2023-02-01T22:23:18.502Z,2.90
2023-02-01T22:28:31.917Z,2.90
2023-02-01T22:33:34.024Z,2.90
2023-02-01T22:38:40.835Z,2.90
2023-02-01T22:43:48.600Z,3.10
2023-02-01T22:48:56.343Z,3.10
2023-02-01T22:54:04.219Z,3.10
2023-02-01T22:59:14.828Z,3.20
2023-02-01T23:04:21.846Z,3.30
2023-02-01T23:09:29.136Z,3.20
2023-02-01T23:14:37.512Z,3.30
2023-02-01T23:19:44.386Z,3.20
2023-02-01T23:24:51.438Z,3.20
2023-02-01T23:29:58.414Z,3.20
2023-02-01T23:35:07.610Z,3.20
2023-02-01T23:40:15.921Z,3.20
2023-02-01T23:45:22.996Z,3.10
2023-02-01T23:50:30.548Z,3.20
2023-02-01T23:55:37.828Z,3.20
